createdAt,value
2022-11-03T00:01:39.478Z,9.33
2022-11-03T00:04:09.436Z,10.73
2022-11-03T00:06:38.292Z,12.80
2022-11-03T00:09:10.063Z,13.37
2022-11-03T00:11:40.529Z,12.10
2022-11-03T00:14:09.500Z,10.27
2022-11-03T00:16:37.994Z,11.93
2022-11-03T00:19:06.254Z,11.57
2022-11-03T00:21:33.895Z,11.33
2022-11-03T00:24:02.137Z,8.50
2022-11-03T00:26:32.474Z,13.93
2022-11-03T00:29:06.366Z,12.43
2022-11-03T00:31:37.230Z,12.20
2022-11-03T00:34:06.044Z,9.03
2022-11-03T00:36:40.491Z,11.97
2022-11-03T00:39:08.395Z,8.53
2022-11-03T00:41:35.657Z,9.27
2022-11-03T00:44:02.879Z,11.27
2022-11-03T00:46:30.504Z,9.13
2022-11-03T00:48:58.235Z,11.60
2022-11-03T00:51:28.445Z,13.33
2022-11-03T00:53:59.081Z,10.33
2022-11-03T00:56:36.767Z,7.90
2022-11-03T00:59:06.477Z,8.80
2022-11-03T01:01:46.519Z,7.20
2022-11-03T01:04:17.501Z,18.00
2022-11-03T01:06:51.311Z,8.47
2022-11-03T01:09:26.064Z,9.53
2022-11-03T01:12:05.907Z,9.43
2022-11-03T01:14:36.711Z,5.80
2022-11-03T01:17:30.202Z,12.20
2022-11-03T01:19:57.331Z,8.63
2022-11-03T01:22:25.006Z,9.73
2022-11-03T01:24:52.276Z,8.07
2022-11-03T01:27:21.736Z,10.53
2022-11-03T01:29:49.000Z,10.70
2022-11-03T01:32:16.323Z,8.40
2022-11-03T01:34:43.717Z,7.87
2022-11-03T01:37:10.939Z,10.27
2022-11-03T01:39:38.105Z,6.93
2022-11-03T01:42:05.649Z,8.87
2022-11-03T01:44:37.293Z,11.37
2022-11-03T01:47:30.799Z,8.60
2022-11-03T01:50:24.424Z,8.03
2022-11-03T01:52:58.583Z,8.93
2022-11-03T01:55:33.696Z,11.37
2022-11-03T01:58:07.632Z,11.40
2022-11-03T02:00:36.121Z,7.20
2022-11-03T02:03:04.422Z,9.27
2022-11-03T02:05:31.935Z,7.67
2022-11-03T02:08:11.047Z,8.87
2022-11-03T02:10:38.866Z,12.60
2022-11-03T02:13:21.821Z,9.93
2022-11-03T02:15:58.437Z,7.77
2022-11-03T02:18:33.001Z,9.03
2022-11-03T02:21:23.011Z,9.33
2022-11-03T02:24:24.180Z,7.70
2022-11-03T02:26:56.572Z,10.13
2022-11-03T02:29:23.786Z,10.17
2022-11-03T02:32:23.013Z,9.97
2022-11-03T02:35:05.225Z,12.30
2022-11-03T02:37:40.840Z,7.17
2022-11-03T02:40:19.089Z,10.10
2022-11-03T02:42:52.569Z,9.97
2022-11-03T02:45:25.258Z,9.27
2022-11-03T02:47:58.924Z,9.37
2022-11-03T02:50:32.433Z,9.50
2022-11-03T02:53:00.732Z,13.00
2022-11-03T02:55:55.649Z,8.80
2022-11-03T02:58:54.507Z,10.00
2022-11-03T03:01:33.512Z,8.13
2022-11-03T03:04:13.537Z,8.27
2022-11-03T03:07:00.774Z,15.23
2022-11-03T03:09:58.346Z,9.20
2022-11-03T03:12:27.969Z,10.17
2022-11-03T03:14:59.552Z,9.10
2022-11-03T03:17:38.431Z,12.20
2022-11-03T03:20:20.050Z,12.37
2022-11-03T03:23:00.888Z,8.97
2022-11-03T03:25:41.438Z,9.10
2022-11-03T03:28:35.300Z,9.80
2022-11-03T03:31:09.442Z,10.50
2022-11-03T03:33:41.931Z,13.47
2022-11-03T03:36:18.895Z,9.17
2022-11-03T03:38:55.724Z,9.07
2022-11-03T03:41:26.796Z,11.43
2022-11-03T03:44:02.782Z,14.17
2022-11-03T03:46:38.607Z,11.47
2022-11-03T03:49:07.175Z,9.80
2022-11-03T03:51:36.560Z,12.53
2022-11-03T03:54:03.894Z,12.50
2022-11-03T03:56:48.563Z,11.30
2022-11-03T03:59:15.838Z,13.07
2022-11-03T04:01:43.333Z,13.10
2022-11-03T04:04:10.613Z,12.40
2022-11-03T04:06:37.720Z,16.07
2022-11-03T04:09:04.948Z,15.60
2022-11-03T04:11:32.184Z,11.90
2022-11-03T04:13:59.479Z,12.90
2022-11-03T04:16:26.816Z,11.60
2022-11-03T04:18:54.056Z,11.27
2022-11-03T04:21:21.235Z,12.17
2022-11-03T04:23:48.571Z,17.00
2022-11-03T04:26:19.067Z,13.63
2022-11-03T04:28:46.804Z,10.53
2022-11-03T04:31:17.233Z,10.07
2022-11-03T04:33:45.216Z,11.27
2022-11-03T04:36:26.359Z,14.23
2022-11-03T04:38:53.528Z,10.00
2022-11-03T04:41:31.306Z,13.30
2022-11-03T04:43:58.858Z,11.47
2022-11-03T04:46:29.838Z,13.00
2022-11-03T04:49:01.991Z,9.37
2022-11-03T04:51:34.779Z,8.73
2022-11-03T04:54:18.420Z,11.57
2022-11-03T04:56:45.807Z,8.80
2022-11-03T04:59:16.195Z,10.27
2022-11-03T05:01:46.104Z,10.07
2022-11-03T05:04:18.912Z,9.10
2022-11-03T05:06:52.463Z,14.10
2022-11-03T05:09:30.099Z,11.63
2022-11-03T05:11:57.637Z,13.77
2022-11-03T05:14:32.689Z,10.83
2022-11-03T05:17:02.986Z,12.23
2022-11-03T05:19:41.231Z,15.03
2022-11-03T05:22:17.469Z,11.57
2022-11-03T05:24:44.981Z,11.63
2022-11-03T05:27:30.857Z,13.70
2022-11-03T05:30:01.011Z,11.00
2022-11-03T05:32:33.432Z,7.60
2022-11-03T05:35:01.330Z,20.17
2022-11-03T05:37:36.111Z,14.07
2022-11-03T05:40:24.345Z,18.27
2022-11-03T05:42:59.044Z,13.80
2022-11-03T05:45:34.971Z,10.87
2022-11-03T05:48:11.599Z,13.37
2022-11-03T05:50:42.623Z,13.00
2022-11-03T05:53:27.561Z,14.90
2022-11-03T05:55:58.733Z,19.77
2022-11-03T05:58:34.842Z,18.33
2022-11-03T06:01:21.790Z,24.07
2022-11-03T06:03:49.274Z,16.80
2022-11-03T06:06:28.017Z,16.07
2022-11-03T06:09:01.914Z,13.80
2022-11-03T06:11:37.127Z,16.00
2022-11-03T06:14:26.397Z,18.60
2022-11-03T06:17:02.091Z,19.23
2022-11-03T06:19:37.624Z,16.17
2022-11-03T06:22:35.263Z,13.30
2022-11-03T06:25:33.014Z,14.53
2022-11-03T06:28:05.465Z,17.00
2022-11-03T06:30:39.168Z,19.03
2022-11-03T06:33:28.558Z,16.47
2022-11-03T06:36:18.733Z,17.27
2022-11-03T06:39:01.650Z,17.63
2022-11-03T06:41:36.096Z,25.53
2022-11-03T06:44:22.182Z,17.70
2022-11-03T06:46:49.400Z,19.83
2022-11-03T06:49:43.358Z,15.20
2022-11-03T06:52:27.018Z,17.10
2022-11-03T06:55:12.186Z,26.37
2022-11-03T06:57:46.937Z,20.17
2022-11-03T07:00:36.208Z,24.20
2022-11-03T07:03:29.878Z,13.77
2022-11-03T07:06:13.619Z,23.37
2022-11-03T07:08:51.642Z,25.87
2022-11-03T07:11:29.939Z,17.57
2022-11-03T07:14:17.870Z,26.20
2022-11-03T07:16:54.473Z,22.77
2022-11-03T07:19:34.862Z,22.33
2022-11-03T07:22:11.227Z,13.33
2022-11-03T07:24:44.431Z,24.87
2022-11-03T07:27:27.699Z,19.23
2022-11-03T07:30:05.991Z,22.20
2022-11-03T07:32:35.188Z,19.77
2022-11-03T07:35:11.241Z,17.33
2022-11-03T07:37:38.456Z,18.60
2022-11-03T07:40:13.407Z,20.10
2022-11-03T07:42:40.631Z,22.07
2022-11-03T07:45:49.610Z,18.67
2022-11-03T07:48:33.130Z,22.30
2022-11-03T07:51:26.405Z,32.13
2022-11-03T07:54:03.405Z,15.77
2022-11-03T07:56:45.061Z,21.70
2022-11-03T07:59:29.189Z,20.93
2022-11-03T08:01:58.205Z,23.03
2022-11-03T08:04:33.634Z,23.70
2022-11-03T08:07:01.206Z,19.73
2022-11-03T08:09:28.382Z,20.37
2022-11-03T08:11:55.487Z,19.50
2022-11-03T08:14:22.868Z,18.60
2022-11-03T08:16:49.998Z,18.23
2022-11-03T08:19:17.163Z,15.07
2022-11-03T08:21:44.297Z,17.43
2022-11-03T08:24:11.482Z,14.67
2022-11-03T08:26:38.643Z,12.57
2022-11-03T08:29:05.778Z,14.47
2022-11-03T08:31:34.120Z,20.17
2022-11-03T08:34:01.429Z,13.57
2022-11-03T08:36:28.582Z,13.47
2022-11-03T08:38:55.745Z,14.27
2022-11-03T08:41:23.030Z,13.97
2022-11-03T08:43:50.215Z,14.27
2022-11-03T08:46:18.466Z,12.03
2022-11-03T08:48:46.882Z,12.63
2022-11-03T08:51:15.770Z,13.80
2022-11-03T08:53:43.874Z,15.33
2022-11-03T08:56:15.072Z,12.60
2022-11-03T08:58:44.355Z,11.10
2022-11-03T09:01:12.502Z,15.43
2022-11-03T09:03:40.998Z,11.27
2022-11-03T09:06:10.299Z,14.93
2022-11-03T09:11:24.796Z,10.43
2022-11-03T09:13:51.927Z,10.63
2022-11-03T09:16:21.195Z,9.30
2022-11-03T09:18:48.640Z,15.30
2022-11-03T09:21:15.798Z,6.77
2022-11-03T09:23:42.965Z,9.73
2022-11-03T09:26:10.244Z,8.80
2022-11-03T09:28:37.323Z,6.30
2022-11-03T09:31:04.746Z,7.43
2022-11-03T09:33:31.981Z,5.67
2022-11-03T09:35:59.157Z,6.83
2022-11-03T09:38:26.464Z,7.17
2022-11-03T09:40:55.010Z,6.90
2022-11-03T09:43:22.268Z,9.17
2022-11-03T09:45:49.587Z,6.80
2022-11-03T09:48:17.092Z,7.87
2022-11-03T09:50:44.682Z,7.93
2022-11-03T09:53:12.889Z,6.97
2022-11-03T09:55:40.518Z,5.17
2022-11-03T09:58:17.616Z,4.63
2022-11-03T10:00:45.947Z,4.27
2022-11-03T10:03:17.305Z,4.67
2022-11-03T10:05:46.172Z,6.40
2022-11-03T10:08:27.383Z,9.23
2022-11-03T10:10:55.721Z,3.90
2022-11-03T10:13:39.270Z,5.77
2022-11-03T10:16:15.019Z,6.60
2022-11-03T10:18:45.750Z,5.83
2022-11-03T10:21:31.602Z,7.50
2022-11-03T10:23:58.721Z,18.07
2022-11-03T10:26:26.123Z,10.13
2022-11-03T10:29:07.665Z,7.97
2022-11-03T10:31:42.343Z,7.77
2022-11-03T10:34:42.190Z,8.23
2022-11-03T10:37:17.985Z,6.43
2022-11-03T10:39:45.602Z,9.37
2022-11-03T10:42:33.770Z,7.13
2022-11-03T10:45:20.027Z,9.93
2022-11-03T10:48:06.588Z,7.03
2022-11-03T10:50:33.823Z,7.40
2022-11-03T10:53:01.323Z,8.13
2022-11-03T10:55:28.868Z,5.37
2022-11-03T10:57:58.364Z,6.27
2022-11-03T11:00:25.825Z,15.57
2022-11-03T11:03:00.783Z,9.43
2022-11-03T11:05:28.291Z,7.30
2022-11-03T11:07:56.159Z,7.83
2022-11-03T11:10:31.260Z,5.70
2022-11-03T11:13:16.527Z,5.23
2022-11-03T11:15:47.401Z,4.13
2022-11-03T11:18:29.837Z,4.87
2022-11-03T11:21:23.253Z,4.20
2022-11-03T11:23:50.736Z,7.63
2022-11-03T11:26:33.358Z,4.63
2022-11-03T11:29:23.695Z,8.60
2022-11-03T11:31:50.898Z,5.03
2022-11-03T11:34:20.782Z,7.57
2022-11-03T11:36:56.880Z,5.47
2022-11-03T11:39:24.032Z,4.40
2022-11-03T11:42:20.247Z,5.83
2022-11-03T11:44:57.432Z,7.07
2022-11-03T11:47:32.340Z,5.47
2022-11-03T11:50:06.109Z,4.77
2022-11-03T11:52:51.144Z,6.37
2022-11-03T11:55:32.431Z,5.57
2022-11-03T11:58:02.491Z,3.30
2022-11-03T12:00:35.267Z,6.17
2022-11-03T12:03:06.710Z,4.50
2022-11-03T12:05:35.986Z,6.70
2022-11-03T12:08:17.741Z,4.67
2022-11-03T12:11:13.047Z,6.30
2022-11-03T12:13:51.326Z,5.50
2022-11-03T12:16:36.137Z,4.53
2022-11-03T12:19:41.716Z,3.47
2022-11-03T12:22:24.110Z,5.77
2022-11-03T12:25:01.488Z,4.67
2022-11-03T12:27:28.622Z,5.53
2022-11-03T12:30:01.626Z,5.80
2022-11-03T12:32:33.899Z,5.43
2022-11-03T12:35:08.054Z,3.20
2022-11-03T12:37:36.075Z,5.33
2022-11-03T12:40:03.740Z,5.03
2022-11-03T12:42:30.818Z,4.67
2022-11-03T12:44:58.549Z,6.97
2022-11-03T12:47:25.784Z,5.20
2022-11-03T12:49:52.979Z,4.13
2022-11-03T12:52:20.137Z,3.50
2022-11-03T12:54:47.444Z,3.67
2022-11-03T12:57:14.614Z,5.23
2022-11-03T12:59:41.855Z,4.17
2022-11-03T13:02:11.223Z,7.13
2022-11-03T13:04:38.800Z,3.40
2022-11-03T13:07:05.926Z,4.73
2022-11-03T13:09:33.117Z,4.53
2022-11-03T13:12:00.455Z,6.17
2022-11-03T13:14:27.631Z,6.50
2022-11-03T13:16:54.728Z,10.70
2022-11-03T13:19:21.917Z,7.33
2022-11-03T13:21:49.043Z,11.50
2022-11-03T13:27:04.996Z,9.43
2022-11-03T13:29:35.619Z,6.33
